Time;durP1;ratioP1;P1;durP2;ratioP2;P2;SDS_P1;SDS_P2;PMS_P1;PMS_P2;Temp;Humidity;BMP_temperature;BMP_pressure;BME280_temperature;BME280_humidity;BME280_pressure;Samples;Min_cycle;Max_cycle;Signal;HPM_P1;HPM_P2
2021/05/27 00:00:12;;;;;;;3.00;1.80;;;;;;;7.82;100.00;96053.06;1056758;28;20102;-50
2021/05/27 00:00:43;;;;;;;3.08;1.55;;;;;;;7.79;100.00;96047.38;1052274;28;20035;-50
2021/05/27 00:01:14;;;;;;;3.27;1.80;;;;;;;7.80;100.00;96055.06;1048965;28;20028;-51
2021/05/27 00:01:44;;;;;;;3.30;1.90;;;;;;;7.80;100.00;96048.97;1052558;28;20022;-51
2021/05/27 00:02:15;;;;;;;4.53;1.70;;;;;;;7.79;100.00;96044.75;1052917;28;20026;-52
2021/05/27 00:02:45;;;;;;;4.73;2.30;;;;;;;7.80;100.00;96044.56;1052802;28;20030;-52
2021/05/27 00:03:15;;;;;;;3.93;1.90;;;;;;;7.78;100.00;96046.53;1052663;28;20464;-52
2021/05/27 00:03:47;;;;;;;5.27;2.20;;;;;;;7.70;100.00;96036.16;1052537;28;20508;-51
2021/05/27 00:04:18;;;;;;;3.72;1.67;;;;;;;7.78;100.00;96045.72;1052668;28;20050;-50
2021/05/27 00:04:48;;;;;;;3.40;1.70;;;;;;;7.79;100.00;96052.59;1055665;28;20493;-51
2021/05/27 00:05:19;;;;;;;5.00;1.90;;;;;;;7.79;100.00;96050.78;1052771;28;20349;-53
2021/05/27 00:05:49;;;;;;;4.17;2.20;;;;;;;7.79;100.00;96052.59;1052654;28;20027;-49
2021/05/27 00:06:20;;;;;;;4.40;1.90;;;;;;;7.79;100.00;96053.41;1052295;28;20045;-50
2021/05/27 00:06:50;;;;;;;5.23;2.00;;;;;;;7.79;100.00;96047.38;1052304;28;20127;-50
2021/05/27 00:07:21;;;;;;;4.97;2.03;;;;;;;7.78;100.00;96050.97;1052394;28;20104;-50
2021/05/27 00:07:52;;;;;;;4.07;1.90;;;;;;;7.75;100.00;96052.13;1048233;28;20086;-51
2021/05/27 00:08:22;;;;;;;3.63;1.97;;;;;;;7.74;100.00;96047.06;1052339;28;20031;-50
2021/05/27 00:08:52;;;;;;;3.63;2.00;;;;;;;7.74;100.00;96044.44;1052005;28;20016;-52
2021/05/27 00:09:23;;;;;;;3.67;1.90;;;;;;;7.68;100.00;96051.22;1051260;28;20021;-52
2021/05/27 00:09:53;;;;;;;4.17;2.20;;;;;;;7.73;100.00;96050.69;1052685;28;20065;-53
2021/05/27 00:10:26;;;;;;;7.30;2.20;;;;;;;7.74;100.00;96049.69;1052207;28;20028;-51
2021/05/27 00:10:56;;;;;;;3.33;1.77;;;;;;;7.75;100.00;96044.28;1049852;28;20419;-51
2021/05/27 00:11:27;;;;;;;3.70;1.90;;;;;;;7.76;100.00;96048.53;1052166;28;20024;-49
2021/05/27 00:11:57;;;;;;;3.57;1.80;;;;;;;7.76;100.00;96050.34;1049918;28;20487;-49
2021/05/27 00:12:28;;;;;;;4.50;1.93;;;;;;;7.78;100.00;96057.03;1052311;28;20012;-49
2021/05/27 00:12:58;;;;;;;5.57;2.00;;;;;;;7.77;100.00;96049.34;1048113;28;20490;-51
2021/05/27 00:13:29;;;;;;;6.10;1.90;;;;;;;7.78;100.00;96045.72;1051564;28;20049;-52
2021/05/27 00:13:59;;;;;;;4.13;1.83;;;;;;;7.73;100.00;96055.91;1052313;28;20480;-51
2021/05/27 00:14:30;;;;;;;3.63;1.90;;;;;;;7.73;100.00;96046.25;1052087;28;20096;-50
2021/05/27 00:15:01;;;;;;;2.70;1.53;;;;;;;7.73;100.00;96056.75;1052862;28;20460;-49
2021/05/27 00:15:31;;;;;;;5.27;1.93;;;;;;;7.74;100.00;96049.69;1053346;28;20373;-51
2021/05/27 00:16:02;;;;;;;4.07;1.90;;;;;;;7.72;100.00;96052.50;1049148;28;20275;-51
2021/05/27 00:16:32;;;;;;;3.63;1.80;;;;;;;7.69;100.00;96052.03;1048993;28;20027;-51
2021/05/27 00:17:03;;;;;;;4.73;1.90;;;;;;;7.65;100.00;96052.41;1049229;28;20075;-49
2021/05/27 00:17:34;;;;;;;6.87;1.90;;;;;;;7.63;100.00;96053.56;1049081;28;20113;-49
2021/05/27 00:18:04;;;;;;;5.53;1.90;;;;;;;7.67;100.00;96049.59;1051790;28;20039;-50
2021/05/27 00:18:35;;;;;;;3.57;1.70;;;;;;;7.67;100.00;96048.78;1042184;28;20055;-48
2021/05/27 00:19:05;;;;;;;2.80;1.63;;;;;;;7.65;100.00;96051.56;1045045;28;20013;-49
2021/05/27 00:19:36;;;;;;;4.70;1.90;;;;;;;7.66;100.00;96053.22;1049055;28;20055;-48
2021/05/27 00:20:07;;;;;;;4.97;2.30;;;;;;;7.72;100.00;96055.13;1049082;28;20441;-52
2021/05/27 00:20:38;;;;;;;4.43;1.90;;;;;;;7.72;100.00;96054.31;1053554;28;20491;-50
2021/05/27 00:21:08;;;;;;;3.90;1.70;;;;;;;7.62;100.00;96046.69;1053435;28;20018;-51
2021/05/27 00:21:39;;;;;;;3.07;1.70;;;;;;;7.58;100.00;96042.81;1053466;28;20015;-50
2021/05/27 00:22:09;;;;;;;3.37;1.60;;;;;;;7.62;100.00;96047.53;1053517;28;20040;-49
2021/05/27 00:22:39;;;;;;;3.63;1.80;;;;;;;7.65;100.00;96046.31;1053476;28;20349;-50
2021/05/27 00:23:10;;;;;;;5.30;2.87;;;;;;;7.68;100.00;96051.22;1053291;28;20015;-51
2021/05/27 00:23:40;;;;;;;4.77;2.80;;;;;;;7.68;100.00;96043.34;1053488;28;20039;-49
2021/05/27 00:24:11;;;;;;;4.17;2.47;;;;;;;7.71;100.00;96050.84;1053245;28;20012;-50
2021/05/27 00:24:41;;;;;;;4.13;2.60;;;;;;;7.72;100.00;96049.06;1053486;28;20020;-51
2021/05/27 00:25:12;;;;;;;4.83;2.50;;;;;;;7.75;100.00;96052.13;1053364;28;20016;-50
2021/05/27 00:25:43;;;;;;;4.37;2.47;;;;;;;7.73;100.00;96050.69;1053583;28;20024;-52
2021/05/27 00:26:13;;;;;;;4.07;2.37;;;;;;;7.75;100.00;96049.50;1053459;28;20054;-49
2021/05/27 00:26:44;;;;;;;2.93;1.80;;;;;;;7.74;100.00;96050.50;1053458;28;20043;-48
2021/05/27 00:27:14;;;;;;;4.63;2.00;;;;;;;7.73;100.00;96043.66;1053327;28;20024;-49
2021/05/27 00:27:45;;;;;;;6.20;2.40;;;;;;;7.74;100.00;96054.94;1053427;28;20050;-49
2021/05/27 00:28:16;;;;;;;3.85;1.80;;;;;;;7.74;100.00;96058.34;1050902;28;20473;-53
2021/05/27 00:28:46;;;;;;;3.50;1.70;;;;;;;7.69;100.00;96046.81;1053560;28;20024;-50
2021/05/27 00:29:17;;;;;;;3.50;1.47;;;;;;;7.66;100.00;96058.44;1053575;28;20024;-49
2021/05/27 00:29:47;;;;;;;3.37;1.90;;;;;;;7.68;100.00;96056.44;1057340;28;20019;-50
2021/05/27 00:30:18;;;;;;;4.40;1.83;;;;;;;7.67;100.00;96054.84;1057408;28;20011;-49
2021/05/27 00:30:48;;;;;;;5.35;1.60;;;;;;;7.66;100.00;96055.81;1056945;28;20115;-50
2021/05/27 00:31:19;;;;;;;3.30;1.77;;;;;;;7.64;100.00;96056.00;1056964;28;20397;-49
2021/05/27 00:31:49;;;;;;;5.27;1.70;;;;;;;7.62;100.00;96051.94;1053438;28;20452;-49
2021/05/27 00:32:20;;;;;;;3.33;1.60;;;;;;;7.61;100.00;96045.06;1049054;28;20024;-49
2021/05/27 00:32:50;;;;;;;3.77;1.50;;;;;;;7.64;100.00;96049.97;1048817;28;20385;-51
2021/05/27 00:33:21;;;;;;;4.60;1.67;;;;;;;7.64;100.00;96044.72;1044705;28;20020;-51
2021/05/27 00:33:51;;;;;;;3.50;1.97;;;;;;;7.63;100.00;96049.13;1045009;28;20013;-51
2021/05/27 00:34:22;;;;;;;3.47;1.83;;;;;;;7.58;100.00;96048.84;1052935;28;20053;-50
2021/05/27 00:34:52;;;;;;;4.33;1.63;;;;;;;7.55;100.00;96045.78;1053118;28;20016;-49
2021/05/27 00:35:23;;;;;;;4.83;2.10;;;;;;;7.53;100.00;96045.13;1053474;28;20023;-49
2021/05/27 00:35:53;;;;;;;3.60;1.90;;;;;;;7.58;100.00;96045.44;1053282;28;20028;-48
2021/05/27 00:36:24;;;;;;;3.80;1.83;;;;;;;7.58;100.00;96040.19;1053653;28;20020;-51
2021/05/27 00:36:54;;;;;;;7.00;1.80;;;;;;;7.59;100.00;96044.41;1053458;28;20027;-51
2021/05/27 00:37:25;;;;;;;4.70;1.70;;;;;;;7.60;100.00;96046.06;1053314;28;20032;-51
2021/05/27 00:37:55;;;;;;;3.63;1.60;;;;;;;7.61;100.00;96047.69;1046133;28;20018;-49
2021/05/27 00:38:26;;;;;;;5.50;2.10;;;;;;;7.64;100.00;96049.97;1048899;28;20114;-51
2021/05/27 00:38:56;;;;;;;4.20;1.70;;;;;;;7.63;100.00;96050.94;1044652;28;20109;-49
2021/05/27 00:39:26;;;;;;;2.80;1.60;;;;;;;7.67;100.00;96049.59;1048707;28;20092;-50
2021/05/27 00:39:57;;;;;;;3.17;1.60;;;;;;;7.66;100.00;96050.59;1052642;28;20510;-51
2021/05/27 00:40:28;;;;;;;4.37;1.70;;;;;;;7.68;100.00;96045.97;1052517;28;20666;-49
2021/05/27 00:40:58;;;;;;;3.53;1.50;;;;;;;7.69;100.00;96052.84;1050840;28;20411;-48
2021/05/27 00:41:29;;;;;;;3.67;1.77;;;;;;;7.71;100.00;96056.09;1053383;28;20016;-50
2021/05/27 00:41:59;;;;;;;3.10;1.60;;;;;;;7.74;100.00;96052.31;1053342;28;20060;-49
2021/05/27 00:42:30;;;;;;;4.40;1.80;;;;;;;7.76;100.00;96047.72;1053562;28;20365;-49
2021/05/27 00:43:00;;;;;;;3.50;1.70;;;;;;;7.71;100.00;96050.84;1053431;28;20016;-49
2021/05/27 00:43:31;;;;;;;5.27;1.67;;;;;;;7.65;100.00;96047.16;1053333;28;20048;-48
2021/05/27 00:44:01;;;;;;;4.17;1.80;;;;;;;7.62;100.00;96050.13;1053158;28;20453;-50
2021/05/27 00:44:32;;;;;;;5.73;1.77;;;;;;;7.67;100.00;96046.97;1052967;28;20103;-49
2021/05/27 00:45:04;;;;;;;3.07;1.70;;;;;;;7.73;100.00;96048.88;1053073;28;20023;-50
2021/05/27 00:45:35;;;;;;;4.10;1.52;;;;;;;7.74;100.00;96049.69;1053047;28;20065;-49
2021/05/27 00:46:05;;;;;;;5.33;1.80;;;;;;;7.66;100.00;96050.59;1053362;28;20373;-48
2021/05/27 00:46:36;;;;;;;7.60;2.20;;;;;;;7.70;100.00;96046.63;1053297;28;20105;-51
2021/05/27 00:47:07;;;;;;;3.30;1.80;;;;;;;7.68;100.00;96053.03;1052672;28;20421;-50
2021/05/27 00:47:38;;;;;;;3.78;1.70;;;;;;;7.69;100.00;96047.59;1052963;28;20015;-51
2021/05/27 00:48:56;;;;;;;3.17;1.77;;;;;;;7.70;100.00;96046.63;1052995;28;20024;-49
2021/05/27 00:49:00;;;;;;;;;;;;;;;7.70;100.00;96051.03;1051540;28;20459;-52
2021/05/27 00:49:30;;;;;;;3.37;1.70;;;;;;;7.71;100.00;96048.22;1053100;28;19908;-49
2021/05/27 00:50:01;;;;;;;3.87;1.70;;;;;;;7.72;100.00;96049.88;1053279;28;20266;-50
2021/05/27 00:50:31;;;;;;;5.37;1.70;;;;;;;7.72;100.00;96049.06;1053453;28;20024;-51
2021/05/27 00:51:02;;;;;;;3.67;1.80;;;;;;;7.72;100.00;96051.69;1053547;28;20024;-50
2021/05/27 00:51:32;;;;;;;8.83;1.90;;;;;;;7.69;100.00;96050.22;1053029;28;20132;-47
2021/05/27 00:52:03;;;;;;;4.13;1.77;;;;;;;7.66;100.00;96047.97;1048763;28;20423;-49
2021/05/27 00:52:34;;;;;;;5.40;1.87;;;;;;;7.70;100.00;96049.25;1044603;28;20497;-50
2021/05/27 00:53:04;;;;;;;3.57;1.80;;;;;;;7.71;100.00;96056.09;1038618;28;20453;-49
2021/05/27 00:53:35;;;;;;;5.70;2.20;;;;;;;7.67;100.00;96054.84;1040442;28;20055;-49
2021/05/27 00:54:05;;;;;;;4.00;1.80;;;;;;;7.67;100.00;96048.78;1035224;28;20033;-50
2021/05/27 00:54:36;;;;;;;3.67;1.80;;;;;;;7.72;100.00;96049.06;1041927;28;20486;-50
2021/05/27 00:55:07;;;;;;;3.77;1.80;;;;;;;7.64;100.00;96035.03;1048967;28;20526;-49
2021/05/27 00:55:38;;;;;;;3.40;1.92;;;;;;;7.73;100.00;96053.28;1049042;28;20027;-50
2021/05/27 00:56:08;;;;;;;4.87;2.03;;;;;;;7.73;100.00;96048.88;1056100;28;20550;-50
2021/05/27 00:56:39;;;;;;;4.27;2.10;;;;;;;7.72;100.00;96054.31;1057164;28;20024;-49
2021/05/27 00:57:13;;;;;;;6.47;2.33;;;;;;;7.73;100.00;96055.91;1053085;28;20019;-49
2021/05/27 00:57:43;;;;;;;4.63;2.00;;;;;;;7.72;100.00;96057.72;1052252;28;20020;-50
2021/05/27 00:58:15;;;;;;;4.07;2.17;;;;;;;7.71;100.00;96056.09;1043869;28;20399;-50
2021/05/27 00:58:46;;;;;;;4.43;1.98;;;;;;;7.65;100.00;96057.66;1037338;28;20514;-49
2021/05/27 00:59:16;;;;;;;5.53;2.00;;;;;;;7.70;100.00;96054.50;1036975;28;20029;-52
2021/05/27 00:59:46;;;;;;;6.10;2.10;;;;;;;7.68;100.00;96060.88;1034891;28;20488;-52
2021/05/27 01:00:18;;;;;;;3.53;1.67;;;;;;;7.67;100.00;96057.47;1043654;28;20405;-49
2021/05/27 01:00:50;;;;;;;5.78;2.10;;;;;;;7.68;100.00;96060.88;1047717;28;20492;-49
2021/05/27 01:01:20;;;;;;;3.55;1.88;;;;;;;7.68;100.00;96061.69;1050311;28;20048;-49
2021/05/27 01:01:52;;;;;;;3.83;1.90;;;;;;;7.69;100.00;96057.28;1053281;28;20059;-53
2021/05/27 01:02:23;;;;;;;4.40;2.00;;;;;;;7.67;100.00;96061.88;1053385;28;20020;-50
2021/05/27 01:02:54;;;;;;;6.63;2.03;;;;;;;7.68;100.00;96061.69;1053412;28;20051;-52
2021/05/27 01:03:24;;;;;;;3.63;1.83;;;;;;;7.70;100.00;96061.50;1052974;28;20027;-49
2021/05/27 01:03:54;;;;;;;4.83;2.23;;;;;;;7.69;100.00;96063.34;1052839;28;20546;-50
2021/05/27 01:04:25;;;;;;;3.63;1.93;;;;;;;7.68;100.00;96061.69;1048737;28;20010;-52
2021/05/27 01:04:55;;;;;;;4.17;2.00;;;;;;;7.70;100.00;96066.75;1044911;28;20107;-50
2021/05/27 01:05:26;;;;;;;4.03;2.07;;;;;;;7.71;100.00;96063.16;1048845;28;20016;-49
2021/05/27 01:05:56;;;;;;;5.43;2.17;;;;;;;7.67;100.00;96065.31;1048860;28;20024;-50
2021/05/27 01:06:27;;;;;;;4.37;1.90;;;;;;;7.67;100.00;96067.94;1053036;28;20024;-50
2021/05/27 01:06:57;;;;;;;4.03;1.93;;;;;;;7.64;100.00;96063.06;1053514;28;20048;-50
2021/05/27 01:07:28;;;;;;;4.80;2.23;;;;;;;7.62;100.00;96063.25;1053541;28;20020;-50
2021/05/27 01:07:58;;;;;;;4.17;2.10;;;;;;;7.67;100.00;96069.72;1051534;28;20464;-50
2021/05/27 01:08:29;;;;;;;6.50;2.13;;;;;;;7.68;100.00;96069.56;1051433;28;20094;-50
2021/05/27 01:09:00;;;;;;;4.50;2.22;;;;;;;7.72;100.00;96075.28;1046065;28;20070;-50
2021/05/27 01:09:31;;;;;;;5.07;2.13;;;;;;;7.63;100.00;96070.09;1042024;28;20040;-49
2021/05/27 01:10:01;;;;;;;4.47;1.80;;;;;;;7.65;100.00;96065.50;1045992;28;20468;-49
2021/05/27 01:10:32;;;;;;;3.57;1.93;;;;;;;7.71;100.00;96074.44;1046176;28;20096;-48
2021/05/27 01:11:03;;;;;;;3.97;2.00;;;;;;;7.72;100.00;96067.41;1051263;28;20027;-48
2021/05/27 01:11:34;;;;;;;3.33;1.83;;;;;;;7.72;100.00;96070.03;1052465;28;20085;-52
2021/05/27 01:12:05;;;;;;;3.67;1.90;;;;;;;7.70;100.00;96070.22;1053275;28;20410;-49
2021/05/27 01:12:35;;;;;;;3.35;1.73;;;;;;;7.70;100.00;96064.13;1053158;28;20018;-49
2021/05/27 01:13:06;;;;;;;4.27;2.00;;;;;;;7.71;100.00;96068.41;1053218;28;20107;-50
2021/05/27 01:13:36;;;;;;;6.13;1.80;;;;;;;7.69;100.00;96071.19;1053069;28;20362;-51
2021/05/27 01:15:27;;;;;;;3.93;1.90;;;;;;;7.68;100.00;96066.94;1053035;28;20028;-49
2021/05/27 01:15:30;;;;;;;4.43;1.85;;;;;;;7.65;100.00;96072.53;1052792;28;20093;-49
2021/05/27 01:16:01;;;;;;;4.47;1.80;;;;;;;7.63;100.00;96075.34;1053302;28;20018;-53
2021/05/27 01:16:31;;;;;;;4.03;1.90;;;;;;;7.59;100.00;96071.47;1052901;28;20049;-51
2021/05/27 01:17:03;;;;;;;4.27;2.00;;;;;;;7.61;100.00;96081.75;1052969;28;20459;-50
2021/05/27 01:17:35;;;;;;;6.25;2.15;;;;;;;7.63;100.00;96085.00;1052999;28;20020;-48
2021/05/27 01:18:09;;;;;;;4.07;2.03;;;;;;;7.64;100.00;96076.16;1052889;28;20050;-48
2021/05/27 01:18:39;;;;;;;3.92;1.90;;;;;;;7.63;100.00;96079.78;1049361;28;20017;-51
2021/05/27 01:19:10;;;;;;;5.40;2.20;;;;;;;7.52;100.00;96083.63;1052999;28;20374;-48
2021/05/27 01:19:40;;;;;;;3.80;2.10;;;;;;;7.54;100.00;96081.63;1048669;28;20021;-49
2021/05/27 01:20:12;;;;;;;3.77;1.97;;;;;;;7.57;100.00;96085.72;1048813;28;20453;-49
2021/05/27 01:20:44;;;;;;;3.42;1.90;;;;;;;7.60;100.00;96082.75;1052866;28;20077;-49
2021/05/27 01:21:17;;;;;;;10.27;2.20;;;;;;;7.59;100.00;96079.31;1052837;28;20567;-50
2021/05/27 01:21:48;;;;;;;4.28;1.80;;;;;;;7.57;100.00;96078.66;1053069;28;20020;-48
2021/05/27 01:22:19;;;;;;;4.70;2.17;;;;;;;7.58;100.00;96087.34;1052711;28;20032;-49
2021/05/27 01:22:50;;;;;;;6.10;2.42;;;;;;;7.58;100.00;96082.91;1052900;28;20514;-50
2021/05/27 01:23:21;;;;;;;4.30;1.97;;;;;;;7.58;100.00;96082.13;1048835;28;20051;-48
2021/05/27 01:23:51;;;;;;;4.88;2.40;;;;;;;7.53;100.00;96087.06;1044623;28;20025;-50
2021/05/27 01:24:22;;;;;;;4.00;2.03;;;;;;;7.53;100.00;96080.03;1048546;28;20078;-49
2021/05/27 01:24:52;;;;;;;4.80;2.23;;;;;;;7.53;100.00;96082.66;1040456;28;20020;-49
2021/05/27 01:25:23;;;;;;;4.87;2.10;;;;;;;7.53;100.00;96081.81;1040514;28;20568;-48
2021/05/27 01:25:54;;;;;;;3.73;2.10;;;;;;;7.55;100.00;96079.84;1044479;28;20431;-49
2021/05/27 01:26:25;;;;;;;3.15;1.90;;;;;;;7.58;100.00;96082.91;1040890;28;20472;-50
2021/05/27 01:26:55;;;;;;;3.43;2.20;;;;;;;7.57;100.00;96078.66;1048930;28;20054;-49
2021/05/27 01:27:26;;;;;;;3.57;2.00;;;;;;;7.58;100.00;96076.88;1048454;28;20504;-52
2021/05/27 01:27:56;;;;;;;9.57;2.37;;;;;;;7.60;100.00;96085.38;1044336;28;20106;-50
2021/05/27 01:28:28;;;;;;;4.93;2.33;;;;;;;7.65;100.00;96073.38;1048719;28;20055;-49
2021/05/27 01:28:58;;;;;;;4.50;2.35;;;;;;;7.63;100.00;96074.53;1048477;28;20460;-48
2021/05/27 01:29:29;;;;;;;5.23;2.17;;;;;;;7.66;100.00;96074.16;1052991;28;20024;-48
2021/05/27 01:29:59;;;;;;;5.67;2.10;;;;;;;7.69;100.00;96088.72;1052908;28;20090;-48
2021/05/27 01:30:30;;;;;;;4.23;2.20;;;;;;;7.69;100.00;96076.44;1053023;28;20444;-48
2021/05/27 01:31:01;;;;;;;3.60;1.83;;;;;;;7.68;100.00;96079.22;1052804;28;20011;-49
2021/05/27 01:31:32;;;;;;;4.88;1.90;;;;;;;7.68;100.00;96082.66;1053148;28;20094;-49
2021/05/27 01:32:03;;;;;;;3.88;2.10;;;;;;;7.68;100.00;96077.41;1053124;28;20016;-50
2021/05/27 01:32:33;;;;;;;3.60;2.07;;;;;;;7.65;100.00;96073.38;1053197;28;20472;-52
2021/05/27 01:33:04;;;;;;;4.33;2.13;;;;;;;7.63;100.00;96075.34;1053107;28;20120;-49
2021/05/27 01:33:34;;;;;;;3.23;1.90;;;;;;;7.62;100.00;96071.09;1053248;28;20443;-49
2021/05/27 01:34:07;;;;;;;4.13;1.93;;;;;;;7.61;100.00;96079.94;1053632;28;20509;-49
2021/05/27 01:34:37;;;;;;;3.55;2.00;;;;;;;7.60;100.00;96074.88;1053332;28;20417;-50
2021/05/27 01:35:14;;;;;;;4.17;2.10;;;;;;;7.62;100.00;96078.13;1053407;28;20014;-49
2021/05/27 01:35:44;;;;;;;4.38;2.20;;;;;;;7.62;100.00;96078.97;1053230;28;20012;-50
2021/05/27 01:36:15;;;;;;;3.87;1.90;;;;;;;7.58;100.00;96076.88;1053089;28;20385;-49
2021/05/27 01:36:46;;;;;;;3.47;2.03;;;;;;;7.59;100.00;96074.09;1052940;28;20095;-51
2021/05/27 01:37:16;;;;;;;3.50;1.80;;;;;;;7.62;100.00;96076.34;1052879;28;20004;-49
2021/05/27 01:37:47;;;;;;;4.10;2.00;;;;;;;7.62;100.00;96078.97;1052982;28;20012;-49
2021/05/27 01:38:18;;;;;;;4.03;1.97;;;;;;;7.61;100.00;96076.53;1044842;28;20013;-50
2021/05/27 01:38:49;;;;;;;3.60;1.90;;;;;;;7.61;100.00;96081.75;1044929;28;20017;-50
2021/05/27 01:39:19;;;;;;;4.53;1.90;;;;;;;7.59;100.00;96079.31;1045084;28;20017;-49
2021/05/27 01:39:50;;;;;;;3.33;1.90;;;;;;;7.54;100.00;96079.03;1049107;28;20015;-50
2021/05/27 01:40:24;;;;;;;3.60;2.00;;;;;;;7.51;100.00;96082.00;1053058;28;20047;-50
2021/05/27 01:40:58;;;;;;;6.53;2.35;;;;;;;7.51;100.00;96082.00;1053220;28;20023;-49
2021/05/27 01:41:28;;;;;;;3.75;1.90;;;;;;;7.56;100.00;96079.69;1053173;28;20023;-52
2021/05/27 01:41:59;;;;;;;4.87;1.90;;;;;;;7.57;100.00;96078.66;1050117;28;20357;-50
2021/05/27 01:42:29;;;;;;;3.93;1.90;;;;;;;7.59;100.00;96083.72;1048908;28;20028;-50
2021/05/27 01:43:00;;;;;;;4.70;2.20;;;;;;;7.58;100.00;96082.91;1048961;28;20029;-50
2021/05/27 01:43:30;;;;;;;6.33;2.97;;;;;;;7.61;100.00;96082.56;1048935;28;20070;-50
2021/05/27 01:44:01;;;;;;;4.00;2.40;;;;;;;7.58;100.00;96087.34;1045005;28;20366;-50
2021/05/27 01:44:31;;;;;;;4.33;2.00;;;;;;;7.60;100.00;96083.53;1048844;28;20024;-49
2021/05/27 01:45:03;;;;;;;4.50;2.20;;;;;;;7.54;100.00;96081.63;1049092;28;20020;-48
2021/05/27 01:45:34;;;;;;;4.68;2.30;;;;;;;7.55;100.00;96083.28;1053206;28;20027;-50
2021/05/27 01:46:04;;;;;;;4.50;2.30;;;;;;;7.53;100.00;96080.03;1053070;28;20023;-51
2021/05/27 01:46:35;;;;;;;3.70;1.90;;;;;;;7.55;100.00;96075.41;1053103;28;20012;-49
2021/05/27 01:47:05;;;;;;;3.67;2.10;;;;;;;7.60;100.00;96080.94;1045029;28;20044;-50
2021/05/27 01:47:36;;;;;;;5.37;2.40;;;;;;;7.62;100.00;96080.75;1044591;28;20101;-48
2021/05/27 01:48:07;;;;;;;4.10;2.00;;;;;;;7.63;100.00;96082.38;1048905;28;20028;-51
2021/05/27 01:48:37;;;;;;;2.97;1.80;;;;;;;7.64;100.00;96082.22;1049117;28;20381;-49
2021/05/27 01:49:08;;;;;;;4.63;2.00;;;;;;;7.66;100.00;96071.56;1053498;28;20046;-49
2021/05/27 01:49:40;;;;;;;4.00;2.05;;;;;;;7.65;100.00;96077.78;1053466;28;20026;-50
2021/05/27 01:50:11;;;;;;;4.70;2.05;;;;;;;7.64;100.00;96073.53;1053496;28;20020;-49
2021/05/27 01:50:42;;;;;;;5.57;2.00;;;;;;;7.61;100.00;96074.72;1053484;28;20030;-49
2021/05/27 01:51:13;;;;;;;4.22;2.00;;;;;;;7.64;100.00;96078.78;1053455;28;20024;-48
2021/05/27 01:51:49;;;;;;;4.67;2.07;;;;;;;7.63;100.00;96079.78;1052943;28;20016;-49
2021/05/27 01:52:20;;;;;;;3.70;2.00;;;;;;;7.58;100.00;96076.88;1048838;28;20120;-51
2021/05/27 01:52:51;;;;;;;4.30;2.20;;;;;;;7.55;100.00;96078.03;1048837;28;20028;-51
2021/05/27 01:53:21;;;;;;;4.00;1.93;;;;;;;7.59;100.00;96084.56;1049951;28;20028;-51
2021/05/27 01:53:51;;;;;;;4.03;2.13;;;;;;;7.58;100.00;96085.53;1052971;28;20081;-51
2021/05/27 01:54:22;;;;;;;3.63;2.00;;;;;;;7.54;100.00;96084.25;1053369;28;20028;-49
2021/05/27 01:54:52;;;;;;;4.70;2.23;;;;;;;7.52;100.00;96085.44;1053484;28;20020;-51
2021/05/27 01:55:23;;;;;;;3.67;1.90;;;;;;;7.59;100.00;96088.97;1053513;28;20525;-49
2021/05/27 01:55:53;;;;;;;5.87;2.20;;;;;;;7.58;100.00;96090.78;1053459;28;20130;-49
2021/05/27 01:56:24;;;;;;;4.23;2.20;;;;;;;7.59;100.00;96089.81;1053297;28;20107;-48
2021/05/27 01:56:54;;;;;;;4.80;2.00;;;;;;;7.61;100.00;96092.25;1053450;28;20016;-51
2021/05/27 01:57:25;;;;;;;3.33;2.00;;;;;;;7.63;100.00;96088.44;1053509;28;20054;-49
2021/05/27 01:57:56;;;;;;;4.70;2.30;;;;;;;7.58;100.00;96089.97;1053329;28;20016;-49
2021/05/27 01:58:26;;;;;;;4.15;2.00;;;;;;;7.60;100.00;96088.78;1057002;28;20032;-50
2021/05/27 01:59:03;;;;;;;3.20;1.90;;;;;;;7.62;100.00;96088.59;1057359;28;20426;-51
2021/05/27 01:59:34;;;;;;;3.75;2.10;;;;;;;7.62;100.00;96088.59;1057291;28;20026;-50
2021/05/27 02:00:06;;;;;;;3.60;2.10;;;;;;;7.64;100.00;96087.44;1056375;28;20089;-50
2021/05/27 02:00:37;;;;;;;3.53;2.15;;;;;;;7.64;100.00;96090.06;1053591;28;20364;-51
2021/05/27 02:01:07;;;;;;;3.77;1.80;;;;;;;7.64;100.00;96076.16;1053349;28;20028;-53
2021/05/27 02:01:38;;;;;;;6.10;2.20;;;;;;;7.64;100.00;96078.78;1053336;28;20027;-50
2021/05/27 02:02:08;;;;;;;5.43;2.00;;;;;;;7.58;100.00;96087.34;1053340;28;20020;-49
2021/05/27 02:02:39;;;;;;;4.17;2.27;;;;;;;7.56;100.00;96087.53;1053473;28;20145;-49
2021/05/27 02:03:09;;;;;;;3.67;2.00;;;;;;;7.59;100.00;96084.56;1052975;28;20020;-52
2021/05/27 02:03:40;;;;;;;4.07;2.10;;;;;;;7.57;100.00;96081.28;1053051;28;20027;-51
2021/05/27 02:04:10;;;;;;;4.60;2.20;;;;;;;7.57;100.00;96086.53;1052990;28;20069;-49
2021/05/27 02:04:41;;;;;;;4.27;2.10;;;;;;;7.60;100.00;96082.75;1053143;28;20056;-49
2021/05/27 02:05:12;;;;;;;5.23;2.20;;;;;;;7.57;100.00;96081.28;1053148;28;20027;-53
2021/05/27 02:05:43;;;;;;;5.85;2.20;;;;;;;7.54;100.00;96072.97;1053341;28;20022;-49
2021/05/27 02:06:13;;;;;;;5.67;2.00;;;;;;;7.60;100.00;96085.38;1053344;28;20039;-51
2021/05/27 02:06:44;;;;;;;4.40;1.93;;;;;;;7.56;100.00;96084.06;1053350;28;20376;-52
2021/05/27 02:07:14;;;;;;;3.30;2.00;;;;;;;7.56;100.00;96086.69;1053458;28;20028;-51
2021/05/27 02:07:45;;;;;;;3.73;1.93;;;;;;;7.57;100.00;96083.91;1053459;28;20019;-49
2021/05/27 02:08:20;;;;;;;5.40;1.93;;;;;;;7.55;100.00;96090.34;1053043;28;20031;-50
2021/05/27 02:09:40;;;;;;;5.20;2.25;;;;;;;7.52;100.00;96085.44;1053001;28;20023;-49
2021/05/27 02:10:10;;;;;;;6.70;2.70;;;;;;;7.48;100.00;96098.06;1056314;28;20028;-49
2021/05/27 02:10:41;;;;;;;5.33;2.37;;;;;;;7.51;100.00;96091.66;1054513;28;20027;-50
2021/05/27 02:11:11;;;;;;;4.77;2.47;;;;;;;7.51;100.00;96089.84;1053315;28;20062;-50
2021/05/27 02:11:43;;;;;;;4.40;2.00;;;;;;;7.50;100.00;96097.88;1052932;28;20032;-51
2021/05/27 02:12:13;;;;;;;3.88;2.17;;;;;;;7.47;100.00;96097.25;1053252;28;20443;-52
2021/05/27 02:12:44;;;;;;;3.83;2.30;;;;;;;7.43;100.00;96100.41;1053083;28;20024;-51
2021/05/27 02:13:14;;;;;;;4.77;2.10;;;;;;;7.49;100.00;96101.53;1053172;28;20353;-51
2021/05/27 02:13:45;;;;;;;3.80;2.20;;;;;;;7.51;100.00;96095.09;1057282;28;20042;-50
2021/05/27 02:14:16;;;;;;;5.80;3.27;;;;;;;7.53;100.00;96095.75;1052879;28;20120;-53
2021/05/27 02:14:46;;;;;;;5.30;3.03;;;;;;;7.54;100.00;96096.56;1052978;28;20012;-51
2021/05/27 02:15:17;;;;;;;6.30;3.50;;;;;;;7.47;100.00;96094.63;1048909;28;20029;-51
2021/05/27 02:15:47;;;;;;;4.13;2.30;;;;;;;7.49;100.00;96099.69;1048802;28;20468;-49
2021/05/27 02:16:17;;;;;;;3.80;2.20;;;;;;;7.50;100.00;96100.50;1052919;28;20020;-51
2021/05/27 02:16:48;;;;;;;4.40;2.50;;;;;;;7.50;100.00;96097.88;1052982;28;20027;-50
2021/05/27 02:17:18;;;;;;;4.33;2.23;;;;;;;7.52;100.00;96098.53;1053331;28;20527;-51
2021/05/27 02:17:49;;;;;;;4.00;1.93;;;;;;;7.46;100.00;96103.47;1053542;28;20019;-49
2021/05/27 02:18:19;;;;;;;3.80;2.20;;;;;;;7.49;100.00;96104.13;1052918;28;20118;-50
2021/05/27 02:18:50;;;;;;;5.17;2.00;;;;;;;7.47;100.00;96104.31;1053051;28;20027;-49
2021/05/27 02:19:20;;;;;;;3.97;1.77;;;;;;;7.50;100.00;96100.50;1053107;28;20388;-48
2021/05/27 02:19:51;;;;;;;3.63;1.97;;;;;;;7.51;100.00;96097.72;1049131;28;20016;-49
2021/05/27 02:20:21;;;;;;;3.73;2.10;;;;;;;7.52;100.00;96095.94;1053078;28;20052;-49
2021/05/27 02:20:52;;;;;;;4.00;2.07;;;;;;;7.52;100.00;96096.72;1053117;28;20042;-49
2021/05/27 02:21:22;;;;;;;3.97;2.10;;;;;;;7.52;100.00;96103.78;1052957;28;20101;-51
2021/05/27 02:21:53;;;;;;;4.73;2.20;;;;;;;7.53;100.00;96097.53;1053235;28;20418;-50
2021/05/27 02:22:23;;;;;;;4.10;2.20;;;;;;;7.53;100.00;96102.78;1052908;28;20019;-50
2021/05/27 02:22:54;;;;;;;3.53;2.13;;;;;;;7.51;100.00;96100.34;1052911;28;20027;-49
2021/05/27 02:23:24;;;;;;;5.07;2.13;;;;;;;7.50;100.00;96098.72;1053217;28;20414;-49
2021/05/27 02:23:55;;;;;;;5.07;2.17;;;;;;;7.51;100.00;96099.53;1052936;28;20024;-49
2021/05/27 02:24:26;;;;;;;4.83;1.93;;;;;;;7.48;100.00;96098.06;1052758;28;20024;-50
2021/05/27 02:24:57;;;;;;;4.07;2.00;;;;;;;7.49;100.00;96102.31;1048699;28;20017;-51
2021/05/27 02:25:27;;;;;;;4.03;1.90;;;;;;;7.44;100.00;96095.00;1048763;28;20017;-52
2021/05/27 02:25:58;;;;;;;4.80;2.10;;;;;;;7.45;100.00;96094.00;1049059;28;20062;-51
2021/05/27 02:26:28;;;;;;;4.27;2.00;;;;;;;7.49;100.00;96098.91;1052692;28;20091;-49
2021/05/27 02:26:59;;;;;;;5.03;2.00;;;;;;;7.47;100.00;96102.50;1053215;28;20084;-49